Time;durP1;ratioP1;P1;durP2;ratioP2;P2;SDS_P1;SDS_P2;PMS_P1;PMS_P2;Temp;Humidity;BMP_temperature;BMP_pressure;BME280_temperature;BME280_humidity;BME280_pressure;Samples;Min_cycle;Max_cycle;Signal;HPM_P1;HPM_P2
2023/03/04 00:01:54;;;;;;;;;;;19.50;41.10;;;;;;5083079;28;20023;-62
2023/03/04 00:04:21;;;;;;;;;;;19.50;41.10;;;;;;5103203;28;19928;-62
2023/03/04 00:06:48;;;;;;;;;;;19.50;41.10;;;;;;5083499;28;19924;-63
2023/03/04 00:09:16;;;;;;;;;;;19.50;41.10;;;;;;5100551;28;19981;-62
2023/03/04 00:11:43;;;;;;;;;;;19.40;41.00;;;;;;5082663;28;19924;-62
2023/03/04 00:14:09;;;;;;;;;;;19.50;41.10;;;;;;5104886;28;19956;-62
2023/03/04 00:16:36;;;;;;;;;;;19.40;40.90;;;;;;5087835;28;19924;-62
2023/03/04 00:19:03;;;;;;;;;;;19.50;41.00;;;;;;5085346;28;19925;-62
2023/03/04 00:21:30;;;;;;;;;;;19.40;40.90;;;;;;5087603;28;19923;-62
2023/03/04 00:23:56;;;;;;;;;;;19.50;41.00;;;;;;5120584;27;20048;-61
2023/03/04 00:26:24;;;;;;;;;;;19.50;41.00;;;;;;5084855;28;19935;-61
2023/03/04 00:28:51;;;;;;;;;;;19.40;40.90;;;;;;5103869;28;19924;-61
2023/03/04 00:31:18;;;;;;;;;;;19.40;40.90;;;;;;5086410;28;20008;-62
2023/03/04 00:33:45;;;;;;;;;;;19.40;41.00;;;;;;5089358;28;19927;-62
2023/03/04 00:36:11;;;;;;;;;;;19.40;40.90;;;;;;5088532;28;19928;-61
2023/03/04 00:38:38;;;;;;;;;;;19.40;40.90;;;;;;5107920;28;19919;-62
2023/03/04 00:41:05;;;;;;;;;;;19.40;40.90;;;;;;5084362;28;19920;-62
2023/03/04 00:43:33;;;;;;;;;;;19.40;40.90;;;;;;5085909;28;19927;-62
2023/03/04 00:46:00;;;;;;;;;;;19.40;40.90;;;;;;5088291;28;19923;-62
2023/03/04 00:48:27;;;;;;;;;;;19.40;40.90;;;;;;5083547;28;19924;-62
2023/03/04 00:50:54;;;;;;;;;;;19.40;40.90;;;;;;5083892;28;20323;-62
2023/03/04 00:53:22;;;;;;;;;;;19.40;40.90;;;;;;5106454;28;19943;-63
2023/03/04 00:55:49;;;;;;;;;;;19.40;40.90;;;;;;5106723;28;19924;-62
2023/03/04 00:58:16;;;;;;;;;;;19.40;40.90;;;;;;5106145;28;20009;-62
2023/03/04 01:00:44;;;;;;;;;;;19.40;40.90;;;;;;5087683;28;20354;-62
2023/03/04 01:03:11;;;;;;;;;;;19.40;40.90;;;;;;5087055;28;19919;-62
2023/03/04 01:05:38;;;;;;;;;;;19.40;40.90;;;;;;5084789;28;20032;-61
2023/03/04 01:08:04;;;;;;;;;;;19.40;40.90;;;;;;5115575;27;19993;-62
2023/03/04 01:10:31;;;;;;;;;;;19.40;40.90;;;;;;5102988;28;19927;-61
2023/03/04 01:12:58;;;;;;;;;;;19.40;40.90;;;;;;5087754;28;19931;-62
2023/03/04 01:15:25;;;;;;;;;;;19.30;40.80;;;;;;5108565;28;19923;-61
2023/03/04 01:17:53;;;;;;;;;;;19.40;40.90;;;;;;5088955;28;19923;-61
2023/03/04 01:20:20;;;;;;;;;;;19.30;40.80;;;;;;5087405;28;19927;-62
2023/03/04 01:22:46;;;;;;;;;;;19.40;40.90;;;;;;5085525;28;19973;-62
2023/03/04 01:25:13;;;;;;;;;;;19.30;40.80;;;;;;5085706;28;19935;-62
2023/03/04 01:27:40;;;;;;;;;;;19.40;40.90;;;;;;5084242;28;19920;-62
2023/03/04 01:30:07;;;;;;;;;;;19.40;40.90;;;;;;5103482;28;19927;-62
2023/03/04 01:32:34;;;;;;;;;;;19.30;40.80;;;;;;5086242;28;19927;-62
2023/03/04 01:35:02;;;;;;;;;;;19.30;40.80;;;;;;5118675;27;19973;-62
2023/03/04 01:37:29;;;;;;;;;;;19.30;40.80;;;;;;5105027;28;19932;-62
2023/03/04 01:39:56;;;;;;;;;;;19.30;40.80;;;;;;5084635;28;19920;-61
2023/03/04 01:42:23;;;;;;;;;;;19.30;40.80;;;;;;5084616;28;19938;-62
2023/03/04 01:44:50;;;;;;;;;;;19.30;40.80;;;;;;5105597;28;19919;-62
2023/03/04 01:47:16;;;;;;;;;;;19.30;40.80;;;;;;5119356;27;20304;-62
2023/03/04 01:49:43;;;;;;;;;;;19.30;40.80;;;;;;5107038;28;19973;-62
2023/03/04 01:52:12;;;;;;;;;;;19.30;40.80;;;;;;5106030;28;19919;-62
2023/03/04 01:54:39;;;;;;;;;;;19.30;40.80;;;;;;5105192;28;19971;-62
2023/03/04 01:57:07;;;;;;;;;;;19.30;40.80;;;;;;5118195;27;19927;-62
2023/03/04 01:59:34;;;;;;;;;;;19.30;40.80;;;;;;5120046;27;19928;-62
2023/03/04 02:02:01;;;;;;;;;;;19.30;40.80;;;;;;5082622;28;19949;-62
2023/03/04 02:04:46;;;;;;;;;;;19.30;40.80;;;;;;5096065;28;19946;-62
2023/03/04 02:07:14;;;;;;;;;;;19.30;40.80;;;;;;5080470;28;19997;-63
2023/03/04 02:09:41;;;;;;;;;;;19.30;40.70;;;;;;5104165;28;19969;-62
2023/03/04 02:12:08;;;;;;;;;;;19.30;40.80;;;;;;5081158;28;19931;-62
2023/03/04 02:14:35;;;;;;;;;;;19.30;40.80;;;;;;5088278;28;19977;-62
2023/03/04 02:17:01;;;;;;;;;;;19.30;40.80;;;;;;5085129;28;19978;-62
2023/03/04 02:19:33;;;;;;;;;;;19.30;40.80;;;;;;5104852;28;19936;-62
2023/03/04 02:22:00;;;;;;;;;;;19.30;40.70;;;;;;5105001;28;19924;-62
2023/03/04 02:24:29;;;;;;;;;;;19.30;40.80;;;;;;5089033;28;19942;-62
2023/03/04 02:26:57;;;;;;;;;;;19.30;40.80;;;;;;5081525;28;19968;-63
2023/03/04 02:29:24;;;;;;;;;;;19.30;40.80;;;;;;5086673;28;19927;-62
2023/03/04 02:31:51;;;;;;;;;;;19.30;40.70;;;;;;5082869;28;19972;-62
2023/03/04 02:34:18;;;;;;;;;;;19.30;40.80;;;;;;5085500;28;19970;-62
2023/03/04 02:36:45;;;;;;;;;;;19.30;40.70;;;;;;5089460;28;19923;-62
2023/03/04 02:39:21;;;;;;;;;;;19.30;40.80;;;;;;5087270;28;19924;-63
2023/03/04 02:41:48;;;;;;;;;;;19.30;40.80;;;;;;5082790;28;19949;-62
2023/03/04 02:44:17;;;;;;;;;;;19.30;40.80;;;;;;5101609;28;19924;-62
2023/03/04 02:46:44;;;;;;;;;;;19.30;40.80;;;;;;5117151;27;20014;-62
2023/03/04 02:49:10;;;;;;;;;;;19.30;40.80;;;;;;5117522;27;19924;-62
2023/03/04 02:51:37;;;;;;;;;;;19.30;40.80;;;;;;5104244;28;19949;-62
2023/03/04 02:54:04;;;;;;;;;;;19.30;40.80;;;;;;5117739;27;19996;-62
2023/03/04 02:56:31;;;;;;;;;;;19.30;40.80;;;;;;5087004;28;19920;-62
2023/03/04 02:58:58;;;;;;;;;;;19.30;40.90;;;;;;5083312;28;19927;-62
2023/03/04 03:01:29;;;;;;;;;;;19.30;40.80;;;;;;5080960;28;19931;-62
2023/03/04 03:03:55;;;;;;;;;;;19.30;40.80;;;;;;5087062;28;19924;-62
2023/03/04 03:06:22;;;;;;;;;;;19.20;40.70;;;;;;5084700;28;19920;-62
2023/03/04 03:08:49;;;;;;;;;;;19.20;40.60;;;;;;5101618;28;19924;-62
2023/03/04 03:11:16;;;;;;;;;;;19.30;40.70;;;;;;5084831;28;20007;-62
2023/03/04 03:13:43;;;;;;;;;;;19.30;40.80;;;;;;5082992;28;20366;-62
2023/03/04 03:16:09;;;;;;;;;;;19.30;40.80;;;;;;5087457;28;19965;-62
2023/03/04 03:18:38;;;;;;;;;;;19.30;40.70;;;;;;5085704;28;19990;-62
2023/03/04 03:21:04;;;;;;;;;;;19.30;40.70;;;;;;5101625;28;19924;-63
2023/03/04 03:23:31;;;;;;;;;;;19.30;40.70;;;;;;5085595;28;19924;-62
2023/03/04 03:25:58;;;;;;;;;;;19.30;40.80;;;;;;5116725;28;19970;-62
2023/03/04 03:28:25;;;;;;;;;;;19.30;40.70;;;;;;5103144;28;19969;-62
2023/03/04 03:30:52;;;;;;;;;;;19.30;40.80;;;;;;5086197;28;19920;-62
2023/03/04 03:33:18;;;;;;;;;;;19.30;40.80;;;;;;5083333;28;20297;-63
2023/03/04 03:35:47;;;;;;;;;;;19.20;40.70;;;;;;5103372;28;19924;-62
2023/03/04 03:38:14;;;;;;;;;;;19.30;40.70;;;;;;5083376;28;20327;-62
2023/03/04 03:40:40;;;;;;;;;;;19.30;40.70;;;;;;5084426;28;19932;-62
2023/03/04 03:43:07;;;;;;;;;;;19.20;40.70;;;;;;5079375;28;19950;-62
2023/03/04 03:45:34;;;;;;;;;;;19.20;40.60;;;;;;5083172;28;20365;-62
2023/03/04 03:48:01;;;;;;;;;;;19.20;40.60;;;;;;5086196;28;19924;-62
2023/03/04 03:50:28;;;;;;;;;;;19.30;40.70;;;;;;5086997;28;19919;-62
2023/03/04 03:52:56;;;;;;;;;;;19.20;40.70;;;;;;5086913;28;20288;-62
2023/03/04 03:55:23;;;;;;;;;;;19.20;40.60;;;;;;5086907;28;19924;-62
2023/03/04 03:57:49;;;;;;;;;;;19.30;40.70;;;;;;5106261;28;20000;-62
2023/03/04 04:00:17;;;;;;;;;;;19.20;40.60;;;;;;5120612;27;19923;-62
2023/03/04 04:02:43;;;;;;;;;;;19.20;40.70;;;;;;5086724;28;19928;-62
2023/03/04 04:05:14;;;;;;;;;;;19.20;40.60;;;;;;5087185;28;19973;-62
2023/03/04 04:07:41;;;;;;;;;;;19.20;40.60;;;;;;5103471;28;19924;-63
2023/03/04 04:10:10;;;;;;;;;;;19.20;40.70;;;;;;5122404;27;20039;-62
2023/03/04 04:12:37;;;;;;;;;;;19.20;40.70;;;;;;5083846;28;19989;-62
2023/03/04 04:15:04;;;;;;;;;;;19.20;40.70;;;;;;5119541;27;19920;-61
2023/03/04 04:17:30;;;;;;;;;;;19.20;40.60;;;;;;5089308;28;19973;-63
2023/03/04 04:19:57;;;;;;;;;;;19.20;40.60;;;;;;5106681;28;19966;-61
2023/03/04 04:22:24;;;;;;;;;;;19.20;40.60;;;;;;5104087;28;19920;-61
2023/03/04 04:24:51;;;;;;;;;;;19.20;40.60;;;;;;5088072;28;19931;-61
2023/03/04 04:27:19;;;;;;;;;;;19.20;40.70;;;;;;5089366;28;19920;-61
2023/03/04 04:29:46;;;;;;;;;;;19.20;40.60;;;;;;5087861;28;19959;-61
2023/03/04 04:32:12;;;;;;;;;;;19.20;40.60;;;;;;5103056;28;19935;-61
2023/03/04 04:34:39;;;;;;;;;;;19.20;40.70;;;;;;5087502;28;19982;-62
2023/03/04 04:37:06;;;;;;;;;;;19.20;40.60;;;;;;5119577;27;19919;-62
2023/03/04 04:39:33;;;;;;;;;;;19.20;40.70;;;;;;5106836;28;19924;-61
2023/03/04 04:41:59;;;;;;;;;;;19.20;40.60;;;;;;5100694;28;19924;-62
2023/03/04 04:44:27;;;;;;;;;;;19.20;40.70;;;;;;5116664;28;19968;-62
2023/03/04 04:46:54;;;;;;;;;;;19.20;40.60;;;;;;5092197;28;19970;-62
2023/03/04 04:49:21;;;;;;;;;;;19.20;40.60;;;;;;5102317;28;19973;-62
2023/03/04 04:51:47;;;;;;;;;;;19.20;40.70;;;;;;5103521;28;19973;-62
2023/03/04 04:54:14;;;;;;;;;;;19.20;40.60;;;;;;5104197;28;19962;-62
2023/03/04 04:56:41;;;;;;;;;;;19.20;40.70;;;;;;5085746;28;20010;-62
2023/03/04 04:59:08;;;;;;;;;;;19.20;40.60;;;;;;5086296;28;20401;-62
2023/03/04 05:01:36;;;;;;;;;;;19.20;40.60;;;;;;5105446;28;20185;-62
2023/03/04 05:04:03;;;;;;;;;;;19.20;40.70;;;;;;5087017;28;19981;-61
2023/03/04 05:06:30;;;;;;;;;;;19.20;40.70;;;;;;5103114;28;19959;-62
2023/03/04 05:08:57;;;;;;;;;;;19.20;40.60;;;;;;5084365;28;19962;-62
2023/03/04 05:11:23;;;;;;;;;;;19.20;40.60;;;;;;5120827;27;19940;-62
2023/03/04 05:13:50;;;;;;;;;;;19.20;40.70;;;;;;5085713;28;20031;-62
2023/03/04 05:16:17;;;;;;;;;;;19.20;40.60;;;;;;5106317;27;20029;-62
2023/03/04 05:18:45;;;;;;;;;;;19.20;40.60;;;;;;5085070;28;19931;-62
2023/03/04 05:21:12;;;;;;;;;;;19.20;40.70;;;;;;5084466;28;20266;-62
2023/03/04 05:23:39;;;;;;;;;;;19.20;40.70;;;;;;5083423;28;19928;-62
2023/03/04 05:26:07;;;;;;;;;;;19.20;40.70;;;;;;5103197;28;19970;-62
2023/03/04 05:28:34;;;;;;;;;;;19.20;40.60;;;;;;5085535;28;19924;-62
2023/03/04 05:31:01;;;;;;;;;;;19.20;40.70;;;;;;5089463;28;19923;-62
2023/03/04 05:33:28;;;;;;;;;;;19.20;40.70;;;;;;5103058;28;19931;-62
2023/03/04 05:35:57;;;;;;;;;;;19.20;40.70;;;;;;5087265;28;19931;-61
2023/03/04 05:38:24;;;;;;;;;;;19.20;40.70;;;;;;5085074;28;19939;-61
2023/03/04 05:40:55;;;;;;;;;;;19.20;40.70;;;;;;5101156;28;20019;-62
2023/03/04 05:43:22;;;;;;;;;;;19.20;40.70;;;;;;5084830;28;19924;-62
2023/03/04 05:45:49;;;;;;;;;;;19.20;40.70;;;;;;5083657;28;19920;-62
2023/03/04 05:48:15;;;;;;;;;;;19.20;40.70;;;;;;5084979;28;19969;-62
2023/03/04 05:50:42;;;;;;;;;;;19.20;40.70;;;;;;5103727;28;19920;-62
2023/03/04 05:53:11;;;;;;;;;;;19.20;40.70;;;;;;5085206;28;19946;-62
2023/03/04 05:55:37;;;;;;;;;;;19.20;40.70;;;;;;5083904;28;19923;-62
2023/03/04 05:58:04;;;;;;;;;;;19.20;40.70;;;;;;5101928;28;19971;-62
2023/03/04 06:00:31;;;;;;;;;;;19.20;41.20;;;;;;5085798;28;19935;-62
2023/03/04 06:02:57;;;;;;;;;;;19.20;40.70;;;;;;5105143;28;19920;-62
2023/03/04 06:05:24;;;;;;;;;;;19.20;40.70;;;;;;5104545;28;19967;-62
2023/03/04 06:07:53;;;;;;;;;;;19.20;40.70;;;;;;5084238;28;19924;-61
2023/03/04 06:10:22;;;;;;;;;;;19.20;40.70;;;;;;5103124;28;19927;-62
2023/03/04 06:12:48;;;;;;;;;;;19.20;40.70;;;;;;5087135;28;19920;-62
2023/03/04 06:15:15;;;;;;;;;;;19.20;40.60;;;;;;5079056;28;19920;-61
2023/03/04 06:17:42;;;;;;;;;;;19.20;40.60;;;;;;5080648;28;19927;-62
2023/03/04 06:20:10;;;;;;;;;;;19.20;40.60;;;;;;5090349;28;19919;-62
2023/03/04 06:22:36;;;;;;;;;;;19.20;40.60;;;;;;5084295;28;19924;-63
2023/03/04 06:25:03;;;;;;;;;;;19.20;40.70;;;;;;5084595;28;19919;-63
2023/03/04 06:27:31;;;;;;;;;;;19.20;40.60;;;;;;5088212;28;20375;-63
2023/03/04 06:29:58;;;;;;;;;;;19.20;40.60;;;;;;5107671;28;20322;-62
2023/03/04 06:32:25;;;;;;;;;;;19.20;40.60;;;;;;5081295;28;19936;-62
2023/03/04 06:34:52;;;;;;;;;;;19.20;40.60;;;;;;5082727;28;19947;-62
2023/03/04 06:37:18;;;;;;;;;;;19.20;40.60;;;;;;5087600;28;19973;-62
2023/03/04 06:39:45;;;;;;;;;;;19.20;40.60;;;;;;5105088;28;19920;-61
2023/03/04 06:42:12;;;;;;;;;;;19.20;40.70;;;;;;5091115;28;20174;-62
2023/03/04 06:44:40;;;;;;;;;;;19.20;40.60;;;;;;5086856;28;19977;-62
2023/03/04 06:47:07;;;;;;;;;;;19.20;40.60;;;;;;5083347;28;20337;-62
2023/03/04 06:49:34;;;;;;;;;;;19.20;40.60;;;;;;5086123;28;19919;-62
2023/03/04 06:52:00;;;;;;;;;;;19.20;40.60;;;;;;5081513;28;19974;-62
2023/03/04 06:54:27;;;;;;;;;;;19.20;40.60;;;;;;5086060;28;20036;-62
2023/03/04 06:56:54;;;;;;;;;;;19.20;40.60;;;;;;5081415;28;20269;-62
2023/03/04 06:59:20;;;;;;;;;;;19.20;40.60;;;;;;5085927;28;19920;-61
2023/03/04 07:01:48;;;;;;;;;;;19.20;40.60;;;;;;5087423;28;19923;-62
2023/03/04 07:04:15;;;;;;;;;;;19.20;40.60;;;;;;5086490;28;19924;-61
2023/03/04 07:06:42;;;;;;;;;;;19.20;40.60;;;;;;5101760;28;19928;-62
2023/03/04 07:09:09;;;;;;;;;;;19.20;40.60;;;;;;5085452;28;19919;-62
2023/03/04 07:11:36;;;;;;;;;;;19.20;40.60;;;;;;5081657;28;19973;-62
2023/03/04 07:14:02;;;;;;;;;;;19.20;40.60;;;;;;5104940;28;19931;-62
2023/03/04 07:16:29;;;;;;;;;;;19.20;40.60;;;;;;5084031;28;20353;-62
2023/03/04 07:18:58;;;;;;;;;;;19.20;40.60;;;;;;5100954;28;20279;-62
2023/03/04 07:21:24;;;;;;;;;;;19.20;40.60;;;;;;5105154;28;19928;-63
2023/03/04 07:23:51;;;;;;;;;;;19.20;40.60;;;;;;5105570;28;19920;-62
2023/03/04 07:26:18;;;;;;;;;;;19.20;40.60;;;;;;5087761;28;19973;-62
2023/03/04 07:28:44;;;;;;;;;;;19.20;40.60;;;;;;5088102;28;19931;-62
2023/03/04 07:31:12;;;;;;;;;;;19.20;40.60;;;;;;5084858;28;19920;-62
2023/03/04 07:33:38;;;;;;;;;;;19.20;40.60;;;;;;5087418;28;19973;-62
2023/03/04 07:36:07;;;;;;;;;;;19.20;40.60;;;;;;5087440;28;19953;-62
2023/03/04 07:38:34;;;;;;;;;;;19.20;40.60;;;;;;5116471;27;19920;-62
2023/03/04 07:41:01;;;;;;;;;;;19.20;40.60;;;;;;5105262;28;19978;-62
2023/03/04 07:43:27;;;;;;;;;;;19.20;40.60;;;;;;5103559;28;19971;-62
2023/03/04 07:45:58;;;;;;;;;;;19.20;41.20;;;;;;5090978;28;19919;-62
2023/03/04 07:48:25;;;;;;;;;;;19.20;40.60;;;;;;5087422;28;20029;-61
2023/03/04 07:51:02;;;;;;;;;;;19.20;40.60;;;;;;5086537;28;20332;-62
2023/03/04 07:53:30;;;;;;;;;;;19.20;40.60;;;;;;5082136;28;19930;-62
2023/03/04 07:55:56;;;;;;;;;;;19.20;40.60;;;;;;5086706;28;19965;-62
2023/03/04 07:58:23;;;;;;;;;;;19.20;40.60;;;;;;5086537;28;19924;-62
2023/03/04 08:00:50;;;;;;;;;;;19.20;40.60;;;;;;5087274;28;19943;-62
2023/03/04 08:03:17;;;;;;;;;;;19.20;40.60;;;;;;5098674;28;19964;-62
2023/03/04 08:05:44;;;;;;;;;;;19.20;40.60;;;;;;5117847;27;19993;-63
2023/03/04 08:08:11;;;;;;;;;;;19.20;40.60;;;;;;5086668;28;19920;-62
2023/03/04 08:10:39;;;;;;;;;;;19.20;40.60;;;;;;5090250;28;20030;-62
2023/03/04 08:13:06;;;;;;;;;;;19.20;40.60;;;;;;5106299;28;19926;-62
2023/03/04 08:15:34;;;;;;;;;;;19.20;40.60;;;;;;5084650;28;19920;-62
2023/03/04 08:18:00;;;;;;;;;;;19.20;40.60;;;;;;5088673;28;19931;-62
2023/03/04 08:20:27;;;;;;;;;;;19.20;40.60;;;;;;5085228;28;19931;-63
2023/03/04 08:22:54;;;;;;;;;;;19.20;40.60;;;;;;5104910;28;19924;-62
2023/03/04 08:25:20;;;;;;;;;;;19.20;40.60;;;;;;5089039;28;19925;-62
2023/03/04 08:27:49;;;;;;;;;;;19.20;40.60;;;;;;5084703;28;19936;-62
2023/03/04 08:30:16;;;;;;;;;;;19.20;40.60;;;;;;5088703;28;19927;-63
2023/03/04 08:32:43;;;;;;;;;;;19.20;40.60;;;;;;5100308;28;20372;-62
2023/03/04 08:35:09;;;;;;;;;;;19.20;40.60;;;;;;5111896;28;19920;-63
2023/03/04 08:37:36;;;;;;;;;;;19.20;40.60;;;;;;5080375;28;19923;-62
2023/03/04 08:40:03;;;;;;;;;;;19.20;40.60;;;;;;5083037;28;19924;-63
2023/03/04 08:42:30;;;;;;;;;;;19.20;40.60;;;;;;5084059;28;19924;-63
2023/03/04 08:44:58;;;;;;;;;;;19.20;40.60;;;;;;5085004;28;19981;-63
2023/03/04 08:47:24;;;;;;;;;;;19.20;40.60;;;;;;5087619;28;19920;-63
2023/03/04 08:49:52;;;;;;;;;;;19.20;40.60;;;;;;5087416;28;19920;-63
2023/03/04 08:52:19;;;;;;;;;;;19.20;40.60;;;;;;5101109;28;19927;-63
2023/03/04 08:54:46;;;;;;;;;;;19.20;40.60;;;;;;5084412;28;20286;-63
2023/03/04 08:57:12;;;;;;;;;;;19.20;40.50;;;;;;5122683;27;19933;-63
2023/03/04 08:59:39;;;;;;;;;;;19.20;40.50;;;;;;5083487;28;19927;-63
2023/03/04 09:02:07;;;;;;;;;;;19.20;40.50;;;;;;5119367;27;19932;-63
2023/03/04 09:04:34;;;;;;;;;;;19.20;40.50;;;;;;5084273;28;20008;-63
2023/03/04 09:07:01;;;;;;;;;;;19.20;40.60;;;;;;5083333;28;20026;-63
2023/03/04 09:09:28;;;;;;;;;;;19.20;40.50;;;;;;5087896;28;19923;-63
2023/03/04 09:11:54;;;;;;;;;;;19.20;40.60;;;;;;5086625;28;19999;-63
2023/03/04 09:14:21;;;;;;;;;;;19.20;40.50;;;;;;5090259;28;19942;-63
2023/03/04 09:16:48;;;;;;;;;;;19.20;40.50;;;;;;5086628;28;20002;-62
2023/03/04 09:19:16;;;;;;;;;;;19.20;40.50;;;;;;5104573;28;19920;-62
2023/03/04 09:21:43;;;;;;;;;;;19.20;40.50;;;;;;5089502;28;19919;-62
2023/03/04 09:24:10;;;;;;;;;;;19.20;40.50;;;;;;5086760;28;19967;-62
2023/03/04 09:26:37;;;;;;;;;;;19.20;40.50;;;;;;5090092;28;19957;-62
2023/03/04 09:29:03;;;;;;;;;;;19.20;40.40;;;;;;5090437;28;20154;-62
2023/03/04 09:31:31;;;;;;;;;;;19.20;40.50;;;;;;5091971;28;19996;-61
2023/03/04 09:33:58;;;;;;;;;;;19.20;40.50;;;;;;5103576;28;19920;-62
2023/03/04 09:36:26;;;;;;;;;;;19.20;40.50;;;;;;5082145;28;19939;-62
2023/03/04 09:38:54;;;;;;;;;;;19.20;40.50;;;;;;5085007;28;19919;-62
2023/03/04 09:41:21;;;;;;;;;;;19.20;40.50;;;;;;5089375;28;19939;-62
2023/03/04 09:43:48;;;;;;;;;;;19.20;40.50;;;;;;5088207;28;19953;-61
2023/03/04 09:46:15;;;;;;;;;;;19.20;40.50;;;;;;5090801;28;19924;-64
2023/03/04 09:48:44;;;;;;;;;;;19.20;40.50;;;;;;5110530;28;19931;-62
2023/03/04 09:51:28;;;;;;;;;;;19.20;40.40;;;;;;5110941;28;19920;-63
2023/03/04 09:54:01;;;;;;;;;;;19.20;40.40;;;;;;5089321;28;19928;-63
2023/03/04 09:56:28;;;;;;;;;;;19.20;40.20;;;;;;5079978;28;19951;-62
2023/03/04 09:58:57;;;;;;;;;;;19.20;39.90;;;;;;5089921;28;19932;-62
2023/03/04 10:01:25;;;;;;;;;;;19.20;39.60;;;;;;5098275;27;19923;-61
2023/03/04 10:03:54;;;;;;;;;;;19.20;39.60;;;;;;5103018;28;19924;-62
2023/03/04 10:06:21;;;;;;;;;;;19.20;39.60;;;;;;5084633;28;19996;-62
2023/03/04 10:08:50;;;;;;;;;;;19.10;39.50;;;;;;5084496;28;19919;-62
2023/03/04 10:11:18;;;;;;;;;;;19.10;39.60;;;;;;5084011;28;19924;-63
2023/03/04 10:14:03;;;;;;;;;;;19.10;39.60;;;;;;5087855;27;19985;-62
2023/03/04 10:16:31;;;;;;;;;;;19.10;39.70;;;;;;5086370;28;19936;-62
2023/03/04 10:19:02;;;;;;;;;;;19.10;39.70;;;;;;5108940;27;19980;-63
2023/03/04 10:21:31;;;;;;;;;;;19.10;39.80;;;;;;5091825;27;19919;-63
2023/03/04 10:23:57;;;;;;;;;;;19.10;39.80;;;;;;5095956;27;19925;-62
2023/03/04 10:26:26;;;;;;;;;;;19.10;39.80;;;;;;5086671;28;19947;-63
2023/03/04 10:28:52;;;;;;;;;;;19.10;39.80;;;;;;5126582;27;19924;-63
2023/03/04 10:31:21;;;;;;;;;;;19.10;39.80;;;;;;5098898;27;19923;-63
2023/03/04 10:33:48;;;;;;;;;;;19.10;39.80;;;;;;5116169;27;20323;-63
2023/03/04 10:36:22;;;;;;;;;;;19.10;39.90;;;;;;5090352;28;19926;-63
2023/03/04 10:38:49;;;;;;;;;;;19.10;39.90;;;;;;5091549;28;19924;-63
2023/03/04 10:41:16;;;;;;;;;;;19.20;40.00;;;;;;5077017;28;19963;-61
2023/03/04 10:43:45;;;;;;;;;;;19.20;40.00;;;;;;5088566;28;19977;-60
2023/03/04 10:46:12;;;;;;;;;;;19.20;40.00;;;;;;5081966;28;19921;-62
2023/03/04 10:48:40;;;;;;;;;;;19.20;40.00;;;;;;5088270;28;19920;-61
2023/03/04 10:51:12;;;;;;;;;;;19.20;40.00;;;;;;5079685;28;19978;-61
2023/03/04 10:53:39;;;;;;;;;;;19.20;40.00;;;;;;5091391;28;20281;-61
2023/03/04 10:56:08;;;;;;;;;;;19.20;40.00;;;;;;5087453;28;19923;-62
2023/03/04 10:58:35;;;;;;;;;;;19.20;40.10;;;;;;5079015;28;19924;-60
2023/03/04 11:01:04;;;;;;;;;;;19.20;40.10;;;;;;5090296;28;19919;-61
2023/03/04 11:03:32;;;;;;;;;;;19.20;40.20;;;;;;5089839;28;19928;-61
2023/03/04 11:06:06;;;;;;;;;;;19.20;40.30;;;;;;5110321;28;19985;-63
2023/03/04 11:08:33;;;;;;;;;;;19.20;40.30;;;;;;5090945;28;19923;-59
2023/03/04 11:10:59;;;;;;;;;;;19.30;40.40;;;;;;5092088;28;19970;-57
2023/03/04 11:13:26;;;;;;;;;;;19.30;40.60;;;;;;5079863;28;19963;-60
2023/03/04 11:15:53;;;;;;;;;;;19.20;34.20;;;;;;5077089;28;19919;-56
2023/03/04 11:18:23;;;;;;;;;;;19.10;30.50;;;;;;5111367;28;20023;-59
2023/03/04 11:20:49;;;;;;;;;;;18.80;29.90;;;;;;5090644;28;19965;-61
2023/03/04 11:23:17;;;;;;;;;;;18.60;30.00;;;;;;5089852;28;20234;-60
2023/03/04 11:25:44;;;;;;;;;;;18.40;31.90;;;;;;5093113;28;20014;-61
2023/03/04 11:28:12;;;;;;;;;;;18.30;32.80;;;;;;5116286;28;20375;-61
2023/03/04 11:30:40;;;;;;;;;;;18.30;33.90;;;;;;5086444;28;20013;-61
2023/03/04 11:33:14;;;;;;;;;;;18.30;34.90;;;;;;5081416;28;19946;-61
2023/03/04 11:35:45;;;;;;;;;;;18.30;36.10;;;;;;5087366;28;19985;-61
2023/03/04 11:38:15;;;;;;;;;;;18.30;35.90;;;;;;5084671;28;19920;-61
2023/03/04 11:40:43;;;;;;;;;;;18.30;36.20;;;;;;5079900;28;19928;-61
2023/03/04 11:43:12;;;;;;;;;;;18.40;36.60;;;;;;5105728;28;19924;-61
2023/03/04 11:45:44;;;;;;;;;;;18.40;36.80;;;;;;5086656;28;19946;-60
2023/03/04 11:48:12;;;;;;;;;;;18.50;37.10;;;;;;5088803;28;20327;-61
2023/03/04 11:50:44;;;;;;;;;;;18.50;37.20;;;;;;5104992;28;19969;-62
2023/03/04 11:53:33;;;;;;;;;;;18.50;37.30;;;;;;5105234;28;20035;-61
2023/03/04 11:56:03;;;;;;;;;;;18.60;37.50;;;;;;5102066;28;19932;-61
2023/03/04 11:58:47;;;;;;;;;;;18.60;37.60;;;;;;5120416;28;20029;-62
2023/03/04 12:01:15;;;;;;;;;;;18.60;37.70;;;;;;5085739;28;19924;-63
2023/03/04 12:03:54;;;;;;;;;;;18.70;37.80;;;;;;5105482;28;19985;-61
2023/03/04 12:06:24;;;;;;;;;;;18.70;37.90;;;;;;5104362;28;19949;-62
2023/03/04 12:08:55;;;;;;;;;;;18.70;38.00;;;;;;5091121;28;19923;-63
2023/03/04 12:11:24;;;;;;;;;;;18.70;38.00;;;;;;5098938;28;19919;-62
2023/03/04 12:14:12;;;;;;;;;;;18.80;38.20;;;;;;5092706;28;19924;-62
2023/03/04 12:16:58;;;;;;;;;;;18.80;38.30;;;;;;5091315;28;20175;-62
2023/03/04 12:19:27;;;;;;;;;;;18.80;38.30;;;;;;5092072;28;19920;-62
2023/03/04 12:21:57;;;;;;;;;;;18.80;38.30;;;;;;5092508;28;20299;-62
2023/03/04 12:24:42;;;;;;;;;;;18.80;38.30;;;;;;5090971;28;20390;-62
2023/03/04 12:27:14;;;;;;;;;;;18.80;38.30;;;;;;5103121;28;20200;-62
2023/03/04 12:29:41;;;;;;;;;;;18.80;38.40;;;;;;5090383;28;19920;-62
2023/03/04 12:32:10;;;;;;;;;;;18.90;38.50;;;;;;5084882;28;19920;-62
2023/03/04 12:34:50;;;;;;;;;;;18.90;38.60;;;;;;5085098;28;19946;-62
2023/03/04 12:37:24;;;;;;;;;;;18.90;38.50;;;;;;5088936;28;19928;-62
2023/03/04 12:39:53;;;;;;;;;;;18.90;38.60;;;;;;5105616;28;19932;-61
2023/03/04 12:42:22;;;;;;;;;;;18.90;38.70;;;;;;5091822;28;19979;-62
2023/03/04 12:44:53;;;;;;;;;;;18.90;38.80;;;;;;5090486;28;19973;-62
2023/03/04 12:47:25;;;;;;;;;;;19.00;39.00;;;;;;5106792;27;19923;-61
2023/03/04 12:49:55;;;;;;;;;;;19.00;39.00;;;;;;5082997;28;20007;-62
2023/03/04 12:52:24;;;;;;;;;;;19.00;39.10;;;;;;5091844;28;19973;-62
2023/03/04 12:54:51;;;;;;;;;;;19.00;39.20;;;;;;5121651;27;19931;-62
2023/03/04 12:57:19;;;;;;;;;;;19.10;39.30;;;;;;5107659;28;19934;-62
2023/03/04 12:59:49;;;;;;;;;;;19.10;39.40;;;;;;5089113;28;19939;-62
2023/03/04 13:02:29;;;;;;;;;;;19.10;39.50;;;;;;5090364;28;19919;-62
2023/03/04 13:04:58;;;;;;;;;;;19.10;39.70;;;;;;5091168;28;20362;-62
2023/03/04 13:07:28;;;;;;;;;;;19.10;39.50;;;;;;5091925;28;19924;-62
2023/03/04 13:09:55;;;;;;;;;;;19.10;39.60;;;;;;5093186;28;19919;-66
2023/03/04 13:12:22;;;;;;;;;;;19.10;39.60;;;;;;5110434;28;20429;-62
2023/03/04 13:15:07;;;;;;;;;;;19.20;39.80;;;;;;5091893;28;19920;-62
2023/03/04 13:17:39;;;;;;;;;;;19.20;39.80;;;;;;5078898;28;19951;-62
2023/03/04 13:20:17;;;;;;;;;;;19.20;39.90;;;;;;5091252;28;19969;-63
2023/03/04 13:22:50;;;;;;;;;;;19.20;39.90;;;;;;5088476;28;19930;-62
2023/03/04 13:25:31;;;;;;;;;;;19.20;39.90;;;;;;5090587;28;19974;-62
2023/03/04 13:28:21;;;;;;;;;;;19.20;39.90;;;;;;5089133;28;20414;-62
2023/03/04 13:31:12;;;;;;;;;;;19.20;39.90;;;;;;5073424;28;19919;-63
2023/03/04 13:33:44;;;;;;;;;;;19.30;40.00;;;;;;5104559;28;20275;-63
2023/03/04 13:36:26;;;;;;;;;;;19.30;40.00;;;;;;5090471;28;19926;-62
2023/03/04 13:38:57;;;;;;;;;;;19.30;40.00;;;;;;5091368;28;19980;-63
2023/03/04 13:41:25;;;;;;;;;;;19.30;40.00;;;;;;5087606;28;19920;-62
2023/03/04 13:43:51;;;;;;;;;;;19.30;40.00;;;;;;5091450;28;19939;-63
2023/03/04 13:46:38;;;;;;;;;;;19.30;40.00;;;;;;5090757;28;19932;-62
2023/03/04 13:49:07;;;;;;;;;;;19.30;40.00;;;;;;5087815;28;19923;-61
2023/03/04 13:51:35;;;;;;;;;;;19.30;40.00;;;;;;5109262;28;20053;-62
2023/03/04 13:54:12;;;;;;;;;;;19.30;40.00;;;;;;5109551;28;19965;-63
2023/03/04 13:56:39;;;;;;;;;;;19.30;40.00;;;;;;5090318;28;19965;-61
2023/03/04 13:59:14;;;;;;;;;;;19.30;40.00;;;;;;5109136;28;19973;-61
2023/03/04 14:01:54;;;;;;;;;;;19.40;40.20;;;;;;5108624;28;19927;-61
2023/03/04 14:04:23;;;;;;;;;;;19.30;40.00;;;;;;5088975;28;19920;-62
2023/03/04 14:06:50;;;;;;;;;;;19.40;40.20;;;;;;5090550;28;19942;-62
2023/03/04 14:09:19;;;;;;;;;;;19.40;40.20;;;;;;5106184;28;20420;-61
2023/03/04 14:11:46;;;;;;;;;;;19.40;40.10;;;;;;5089641;28;19927;-61
2023/03/04 14:14:13;;;;;;;;;;;19.40;40.20;;;;;;5085620;28;20040;-61
2023/03/04 14:17:00;;;;;;;;;;;19.40;40.20;;;;;;5152758;27;19930;-62
2023/03/04 14:19:27;;;;;;;;;;;19.40;40.20;;;;;;5126467;27;20282;-62
2023/03/04 14:21:54;;;;;;;;;;;19.40;40.20;;;;;;5113302;28;19931;-62
2023/03/04 14:24:21;;;;;;;;;;;19.40;40.20;;;;;;5120287;27;19955;-61